Atlantic Clover — 3FVD6 — position and weather

sailwx.info

Track history (hours):
 
Tides and Currents Weather Stations Pressure Air Temp Water Temp Dewpoint Dewpoint Depression Visibility Wind Speed Wind Dir Waves Ship Positions

Atlantic Clover

Last reported at 2014-Aug-31 15:27 UTC. Time now 2014-Sep-30 10:15 UTC.
Position N 36°17' E 023°47'.
Warning: this ship's position is 29 days out of date.

Length 180 m; draft 5.5 m.

Type: Cargo ship. MMSI: 371263000.

Date/timePositionNaut miles runAvg speedWind from/ knotsBaromVisibWave heightAir tempDewpointWater temp
2014-Aug-31 15:27N 36°17' E 023°47'1213.1
2014-Aug-31 14:32N 36°16' E 024°01'1312.8
2014-Aug-31 13:34N 36°14' E 024°17'  
2014-Aug-27 10:14N 35°58' E 030°52'17710.4
2014-Aug-26 17:12N 36°23' E 027°15'812.1
2014-Aug-26 16:33N 36°28' E 027°07'1211.9
2014-Aug-26 15:33N 36°36' E 026°57'1312.5
2014-Aug-26 14:33N 36°47' E 026°48'1212.3
2014-Aug-26 13:33N 36°56' E 026°38'1211.9
2014-Aug-26 12:33N 37°06' E 026°29'1211.6
2014-Aug-26 11:33N 37°13' E 026°18'1211.9
2014-Aug-26 10:33N 37°21' E 026°07'1211.6
2014-Aug-26 09:34N 37°29' E 025°56'1311.7
2014-Aug-26 08:29N 37°41' E 025°52'1111.8
2014-Aug-26 07:33N 37°52' E 025°50'1211.8
2014-Aug-26 06:29N 38°04' E 025°48'1112.1
2014-Aug-26 05:33N 38°15' E 025°46'1212.2
2014-Aug-26 04:33N 38°28' E 025°44'8512.0
2014-Aug-25 21:25N 39°53' E 025°51'57 3.6
2014-Aug-25 05:33N 40°29' E 026°49'6710.8
2014-Aug-24 23:20N 40°51' E 028°13'1011.8
2014-Aug-24 22:31N 40°52' E 028°26'1111.7
2014-Aug-24 21:33N 40°54' E 028°41'1111.2
2014-Aug-24 20:33N 40°56' E 028°55'21 9.6
2014-Aug-24 18:25N 41°14' E 029°08'6 5.3
2014-Aug-24 17:15N 41°17' E 029°00'0 0.0
2014-Aug-24 16:19N 41°17' E 029°00'0 0.0
2014-Aug-24 15:33N 41°17' E 029°00'30 4.1
2014-Aug-24 08:14N 41°44' E 029°17'1112.7
2014-Aug-24 07:24N 41°55' E 029°21'  
Track history (hours):
 
Tides and Currents Weather Stations Pressure Air Temp Water Temp Dewpoint Dewpoint Depression Visibility Wind Speed Wind Dir Waves Ship Positions

Atlantic Clover

Last reported at 2014-Aug-31 15:27 UTC. Time now 2014-Sep-30 10:15 UTC.
Position N 36°17' E 023°47'.
Warning: this ship's position is 29 days out of date.

Length 180 m; draft 5.5 m.

Type: Cargo ship. MMSI: 371263000.

Date/timePositionNaut miles runAvg speedWind from/ knotsBaromVisibWave heightAir tempDewpointWater temp
2014-Aug-31 15:27N 36°17' E 023°47'1213.1
2014-Aug-31 14:32N 36°16' E 024°01'1312.8
2014-Aug-31 13:34N 36°14' E 024°17'  
2014-Aug-27 10:14N 35°58' E 030°52'17710.4
2014-Aug-26 17:12N 36°23' E 027°15'812.1
2014-Aug-26 16:33N 36°28' E 027°07'1211.9
2014-Aug-26 15:33N 36°36' E 026°57'1312.5
2014-Aug-26 14:33N 36°47' E 026°48'1212.3
2014-Aug-26 13:33N 36°56' E 026°38'1211.9
2014-Aug-26 12:33N 37°06' E 026°29'1211.6
2014-Aug-26 11:33N 37°13' E 026°18'1211.9
2014-Aug-26 10:33N 37°21' E 026°07'1211.6
2014-Aug-26 09:34N 37°29' E 025°56'1311.7
2014-Aug-26 08:29N 37°41' E 025°52'1111.8
2014-Aug-26 07:33N 37°52' E 025°50'1211.8
2014-Aug-26 06:29N 38°04' E 025°48'1112.1
2014-Aug-26 05:33N 38°15' E 025°46'1212.2
2014-Aug-26 04:33N 38°28' E 025°44'8512.0
2014-Aug-25 21:25N 39°53' E 025°51'57 3.6
2014-Aug-25 05:33N 40°29' E 026°49'6710.8
2014-Aug-24 23:20N 40°51' E 028°13'1011.8
2014-Aug-24 22:31N 40°52' E 028°26'1111.7
2014-Aug-24 21:33N 40°54' E 028°41'1111.2
2014-Aug-24 20:33N 40°56' E 028°55'21 9.6
2014-Aug-24 18:25N 41°14' E 029°08'6 5.3
2014-Aug-24 17:15N 41°17' E 029°00'0 0.0
2014-Aug-24 16:19N 41°17' E 029°00'0 0.0
2014-Aug-24 15:33N 41°17' E 029°00'30 4.1
2014-Aug-24 08:14N 41°44' E 029°17'1112.7
2014-Aug-24 07:24N 41°55' E 029°21'  

Dump ship's entire track history